Main page
METAR-TAF:

METAR-TAF

Airports :

Santa Cruz Air Force Base

Santa Cruz, Rio de Janeiro, Brazil

latitude: 22-56S, longitude: 043-43W, elevation: 3 m

Current weather observation

The report was made 1 hour and 1 minutes ago, at 02:00 UTC
Calm wind
Temperature 22°C
Humidity 94%
Pressure 1018 hPa
Visibility: 8000 m

METAR: SBSC 240200Z 00000KT 8000 NSC 22/21 Q1018

Time: 00:01 (03:01 UTC)

Forecast

The report was made 5 hours and 1 minutes ago, at 22:00 UTC
Forecast valid from 24 at 00 UTC to 24 at 12 UTC
Wind 5 kt from the West
Visibility 10 km or more
no clouds below 1500 m and no cumulonimbus

TAF: SBSC 232200Z 2400/2412 26005KT CAVOK TX22/2400Z TN19/2408Z RMK PDV

Weather observations and forecasts of more than 4000 airports (METAR and TAF reports).

The available stations are represented by yellow and red dots on the map.

Hover mouse over dot to see the name of the station.

Then click to see weather observations and forecasts.

To change the map : click on the green buttons with a black cross to zoom in, on the green button with a dash to zoom out, or on the green arrows for adjacent maps.


METAR-TAF: